| time (UTC) | temp C | wind direction | speed KPH | gust KPH | rain 1hr cm | rain 24hr cm | rain mn cm | humidity % | barometer mb |
| 20260505140328 | 2 | 121 | 6.4 | 11.3 | 0.05 | 0.56 | 0.20 | 86 | 1015.8 |
| 20260505124830 | 2 | 41 | 8.0 | 17.7 | 0.13 | 0.51 | 0.15 | 87 | 1014.6 |
| 20260505124330 | 2 | 344 | 8.0 | 22.5 | 0.13 | 0.51 | 0.15 | 87 | 1014.6 |
| 20260505123831 | 2 | 44 | 8.0 | 17.7 | 0.15 | 0.51 | 0.15 | 87 | 1014.4 |
| 20260505123313 | 3 | 26 | 8.0 | 14.5 | 0.13 | 0.48 | 0.13 | 86 | 1014.2 |
| 20260505122816 | 3 | 358 | 8.0 | 17.7 | 0.13 | 0.48 | 0.13 | 86 | 1014.3 |
| 20260505122318 | 3 | 353 | 6.4 | 16.1 | 0.10 | 0.46 | 0.10 | 86 | 1014.1 |
| 20260505121821 | 3 | 9 | 6.4 | 16.1 | 0.10 | 0.46 | 0.10 | 87 | 1014.2 |
| 20260505121324 | 3 | 33 | 8.0 | 17.7 | 0.10 | 0.46 | 0.10 | 87 | 1014.1 |
| 20260505120844 | 3 | 79 | 9.7 | 16.1 | 0.08 | 0.43 | 0.08 | 87 | 1014.0 |
| 20260505120323 | 3 | 59 | 4.8 | 17.7 | 0.05 | 0.41 | 0.05 | 87 | 1013.8 |
| 20260505115826 | 3 | 45 | 4.8 | 17.7 | 0.05 | 0.41 | 0.05 | 87 | 1013.8 |
| 20260505115344 | 3 | 88 | 6.4 | 17.7 | 0.05 | 0.41 | 0.05 | 87 | 1013.8 |
| 20260505114825 | 3 | 22 | 8.0 | 22.5 | 0.03 | 0.38 | 0.03 | 87 | 1013.7 |
| 20260505114325 | 4 | 49 | 9.7 | 22.5 | 0.03 | 0.38 | 0.03 | 87 | 1013.6 |
| 20260505113828 | 4 | 55 | 9.7 | 22.5 | 0.00 | 0.36 | 0.00 | 87 | 1013.5 |
| 20260505113314 | 4 | 54 | 4.8 | 20.9 | 0.00 | 0.36 | 0.00 | 87 | 1013.5 |
| 20260505112815 | 5 | 11 | 8.0 | 20.9 | 0.00 | 0.36 | 0.00 | 87 | 1013.5 |
| 20260505112316 | 5 | 49 | 9.7 | 19.3 | 0.00 | 0.36 | 0.00 | 87 | 1013.4 |
| 20260505111814 | 5 | 35 | 6.4 | 14.5 | 0.00 | 0.36 | 0.00 | 87 | 1013.2 |
| 20260505110845 | 5 | 95 | 1.6 | 14.5 | 0.00 | 0.36 | 0.00 | 87 | 1012.9 |
| 20260505110324 | 5 | 111 | 4.8 | 14.5 | 0.00 | 0.36 | 0.00 | 87 | 1012.9 |
| 20260505101818 | 6 | 101 | 4.8 | 14.5 | 0.00 | 0.36 | 0.00 | 87 | 1012.2 |
| 20260505101320 | 6 | 75 | 3.2 | 12.9 | 0.00 | 0.36 | 0.00 | 87 | 1012.1 |
| 20260505100823 | 7 | 63 | 4.8 | 16.1 | 0.00 | 0.36 | 0.00 | 87 | 1012.0 |
| 20260505100324 | 7 | 49 | 3.2 | 16.1 | 0.00 | 0.36 | 0.00 | 87 | 1012.0 |
| 20260505095827 | 7 | 60 | 4.8 | 12.9 | 0.00 | 0.36 | 0.00 | 87 | 1011.9 |
| 20260505095330 | 7 | 86 | 3.2 | 9.7 | 0.00 | 0.36 | 0.00 | 86 | 1011.8 |
| 20260505094852 | 7 | 89 | 3.2 | 11.3 | 0.00 | 0.36 | 0.00 | 86 | 1011.9 |
| 20260505094313 | 7 | 69 | 3.2 | 11.3 | 0.00 | 0.36 | 0.00 | 86 | 1011.9 |
| 20260505093816 | 7 | 69 | 3.2 | 11.3 | 0.00 | 0.36 | 0.00 | 86 | 1012.0 |
| 20260505093319 | 7 | 122 | 4.8 | 11.3 | 0.00 | 0.36 | 0.00 | 85 | 1011.9 |
| 20260505092821 | 7 | 107 | 3.2 | 8.0 | 0.00 | 0.36 | 0.00 | 85 | 1012.0 |
| 20260505092323 | 7 | 111 | 3.2 | 9.7 | 0.00 | 0.36 | 0.00 | 85 | 1012.0 |
| 20260505091825 | 7 | 117 | 3.2 | 9.7 | 0.00 | 0.36 | 0.00 | 86 | 1011.9 |
| 20260505091326 | 7 | 101 | 3.2 | 9.7 | 0.00 | 0.36 | 0.00 | 86 | 1011.8 |
| 20260505090828 | 7 | 77 | 0.0 | 8.0 | 0.00 | 0.36 | 0.00 | 86 | 1011.9 |
| 20260505090328 | 7 | 77 | 3.2 | 8.0 | 0.00 | 0.36 | 0.00 | 86 | 1011.9 |
| 20260505085830 | 7 | 69 | 1.6 | 8.0 | 0.00 | 0.36 | 0.00 | 86 | 1011.9 |
| 20260505085352 | 8 | 67 | 3.2 | 8.0 | 0.00 | 0.36 | 0.00 | 86 | 1012.0 |
| 20260505084814 | 8 | 35 | 3.2 | 8.0 | 0.00 | 0.36 | 0.00 | 86 | 1012.1 |
| 20260505084315 | 8 | 32 | 3.2 | 6.4 | 0.00 | 0.36 | 0.00 | 87 | 1012.1 |
| 20260505083817 | 8 | 38 | 4.8 | 6.4 | 0.00 | 0.36 | 0.00 | 87 | 1012.0 |
| 20260505083317 | 8 | 167 | 3.2 | 4.8 | 0.00 | 0.36 | 0.00 | 87 | 1012.1 |
| 20260505082820 | 8 | 175 | 1.6 | 3.2 | 0.00 | 0.36 | 0.00 | 87 | 1012.1 |
| 20260505082323 | 8 | 175 | 0.0 | 3.2 | 0.00 | 0.36 | 0.00 | 87 | 1012.2 |
| 20260505081826 | 8 | 175 | 0.0 | 3.2 | 0.00 | 0.36 | 0.00 | 87 | 1012.2 |
| 20260505081349 | 8 | 175 | 1.6 | 3.2 | 0.00 | 0.36 | 0.00 | 87 | 1012.2 |
| 20260505080828 | 8 | 175 | 0.0 | 3.2 | 0.00 | 0.36 | 0.00 | 87 | 1012.2 |
| 20260505080332 | 8 | 175 | 1.6 | 3.2 | 0.00 | 0.36 | 0.00 | 87 | 1012.1 |
| 20260505075836 | 8 | 175 | 0.0 | 3.2 | 0.00 | 0.36 | 0.00 | 87 | 1012.1 |
| 20260505075336 | 8 | 175 | 0.0 | 0.0 | 0.00 | 0.36 | 0.00 | 86 | 1012.2 |
| 20260505074816 | 8 | 175 | 0.0 | 3.2 | 0.00 | 0.36 | 0.00 | 86 | 1012.2 |
| 20260505074317 | 8 | 175 | 1.6 | 3.2 | 0.00 | 0.36 | 0.00 | 86 | 1012.1 |
| 20260505073838 | 8 | 175 | 1.6 | 3.2 | 0.00 | 0.36 | 0.00 | 86 | 1012.3 |
| 20260505073317 | 8 | 175 | 1.6 | 3.2 | 0.00 | 0.36 | 0.00 | 86 | 1012.5 |
| 20260505072820 | 8 | 175 | 1.6 | 3.2 | 0.00 | 0.36 | 0.00 | 86 | 1012.5 |
| 20260505072323 | 8 | 175 | 1.6 | 4.8 | 0.00 | 0.36 | 0.00 | 86 | 1012.5 |
| 20260505071826 | 8 | 175 | 1.6 | 6.4 | 0.00 | 0.36 | 0.00 | 87 | 1012.5 |
| 20260505071328 | 8 | 175 | 1.6 | 6.4 | 0.00 | 0.36 | 0.00 | 87 | 1012.6 |
| 20260505070829 | 8 | 178 | 4.8 | 6.4 | 0.00 | 0.36 | 0.00 | 87 | 1012.7 |
| 20260505070350 | 8 | 179 | 3.2 | 6.4 | 0.00 | 0.36 | 0.00 | 86 | 1012.6 |
| 20260505065813 | 8 | 202 | 3.2 | 6.4 | 0.00 | 0.36 | 0.00 | 85 | 1012.5 |
| 20260505065314 | 8 | 211 | 3.2 | 6.4 | 0.00 | 0.36 | 0.00 | 85 | 1012.7 |
| 20260505064817 | 8 | 217 | 1.6 | 4.8 | 0.00 | 0.36 | 0.00 | 85 | 1012.7 |
| 20260505064319 | 8 | 220 | 1.6 | 3.2 | 0.00 | 0.36 | 0.00 | 85 | 1012.7 |
| 20260505063821 | 8 | 220 | 0.0 | 1.6 | 0.00 | 0.36 | 0.00 | 85 | 1012.7 |
| 20260505063336 | 8 | 220 | 0.0 | 3.2 | 0.00 | 0.36 | 0.00 | 85 | 1012.7 |
| 20260505062818 | 8 | 220 | 1.6 | 4.8 | 0.00 | 0.36 | 0.00 | 85 | 1012.7 |
| 20260505062319 | 8 | 220 | 1.6 | 4.8 | 0.00 | 0.36 | 0.00 | 85 | 1012.7 |
| 20260505061821 | 8 | 220 | 1.6 | 4.8 | 0.00 | 0.36 | 0.00 | 85 | 1012.7 |
| 20260505061323 | 8 | 220 | 1.6 | 4.8 | 0.00 | 0.36 | 0.00 | 85 | 1012.8 |
| 20260505060823 | 8 | 220 | 0.0 | 4.8 | 0.00 | 0.36 | 0.00 | 85 | 1012.9 |
| 20260505060324 | 8 | 221 | 1.6 | 4.8 | 0.03 | 0.36 | 0.00 | 85 | 1012.8 |
| 20260505055821 | 8 | 221 | 1.6 | 4.8 | 0.03 | 0.36 | 0.36 | 85 | 1012.9 |
| 20260505055324 | 8 | 222 | 1.6 | 4.8 | 0.03 | 0.36 | 0.36 | 85 | 1012.8 |
| 20260505054826 | 8 | 223 | 1.6 | 6.4 | 0.03 | 0.36 | 0.36 | 85 | 1012.8 |
| 20260505054328 | 8 | 223 | 1.6 | 6.4 | 0.03 | 0.36 | 0.36 | 85 | 1012.5 |
| 20260505053831 | 8 | 224 | 1.6 | 4.8 | 0.03 | 0.36 | 0.36 | 85 | 1012.5 |
| 20260505053314 | 8 | 225 | 0.0 | 4.8 | 0.03 | 0.36 | 0.36 | 85 | 1012.7 |
| 20260505052817 | 8 | 226 | 0.0 | 6.4 | 0.05 | 0.36 | 0.36 | 85 | 1012.7 |
| 20260505052317 | 8 | 226 | 3.2 | 4.8 | 0.05 | 0.36 | 0.36 | 85 | 1012.8 |
| 20260505051839 | 8 | 227 | 1.6 | 6.4 | 0.05 | 0.36 | 0.36 | 85 | 1012.7 |
| 20260505051320 | 8 | 229 | 3.2 | 6.4 | 0.05 | 0.36 | 0.36 | 85 | 1013.0 |
| 20260505050823 | 8 | 236 | 1.6 | 4.8 | 0.05 | 0.36 | 0.36 | 85 | 1013.0 |
| 20260505050324 | 8 | 236 | 3.2 | 4.8 | 0.05 | 0.33 | 0.33 | 85 | 1013.0 |
| 20260505041318 | 8 | 279 | 4.8 | 14.5 | 0.13 | 0.30 | 0.30 | 85 | 1013.3 |
| 20260505040819 | 8 | 269 | 4.8 | 16.1 | 0.13 | 0.30 | 0.30 | 85 | 1013.2 |
| 20260505040340 | 9 | 275 | 4.8 | 19.3 | 0.10 | 0.28 | 0.28 | 84 | 1013.1 |
| 20260505035821 | 9 | 268 | 4.8 | 22.5 | 0.08 | 0.25 | 0.25 | 82 | 1013.0 |
| 20260505035323 | 10 | 297 | 8.0 | 22.5 | 0.03 | 0.20 | 0.20 | 78 | 1013.0 |
| 20260505034823 | 11 | 291 | 8.0 | 17.7 | 0.00 | 0.18 | 0.18 | 73 | 1012.9 |
| 20260505034323 | 11 | 301 | 1.6 | 11.3 | 0.00 | 0.18 | 0.18 | 70 | 1012.6 |
| 20260505033826 | 11 | 282 | 4.8 | 11.3 | 0.00 | 0.18 | 0.18 | 68 | 1012.7 |
| 20260505033327 | 11 | 288 | 1.6 | 11.3 | 0.00 | 0.18 | 0.18 | 69 | 1012.6 |
| 20260505032828 | 11 | 319 | 0.0 | 6.4 | 0.00 | 0.18 | 0.18 | 68 | 1012.5 |
| 20260505032330 | 11 | 320 | 3.2 | 6.4 | 0.00 | 0.18 | 0.18 | 69 | 1012.3 |
| 20260505031831 | 11 | 316 | 0.0 | 3.2 | 0.00 | 0.18 | 0.18 | 69 | 1012.1 |
| 20260505031313 | 11 | 316 | 1.6 | 3.2 | 0.00 | 0.18 | 0.18 | 68 | 1012.1 |
| 20260505030816 | 11 | 316 | 0.0 | 6.4 | 0.00 | 0.18 | 0.18 | 69 | 1012.0 |
| 20260505030338 | 11 | 316 | 1.6 | 8.0 | 0.00 | 0.18 | 0.18 | 68 | 1011.8 |
| 20260505025819 | 11 | 315 | 0.0 | 8.0 | 0.00 | 0.18 | 0.18 | 68 | 1011.7 |
| 20260505025341 | 11 | 32 | 1.6 | 9.7 | 0.00 | 0.18 | 0.18 | 69 | 1011.7 |
| 20260505024843 | 11 | 32 | 3.2 | 9.7 | 0.00 | 0.18 | 0.18 | 69 | 1011.6 |
| 20260505024345 | 11 | 26 | 3.2 | 6.4 | 0.00 | 0.18 | 0.18 | 69 | 1011.4 |
| 20260505023825 | 11 | 50 | 1.6 | 6.4 | 0.00 | 0.18 | 0.18 | 70 | 1011.4 |
| 20260505023326 | 11 | 26 | 1.6 | 4.8 | 0.00 | 0.18 | 0.18 | 69 | 1011.4 |
| 20260505022829 | 11 | 26 | 0.0 | 4.8 | 0.00 | 0.18 | 0.18 | 69 | 1011.5 |
| 20260505022330 | 11 | 27 | 1.6 | 6.4 | 0.00 | 0.18 | 0.18 | 70 | 1011.6 |
| 20260505021852 | 11 | 26 | 3.2 | 9.7 | 0.03 | 0.18 | 0.18 | 68 | 1011.3 |
| 20260505021331 | 11 | 26 | 4.8 | 9.7 | 0.03 | 0.18 | 0.18 | 67 | 1011.3 |
| 20260505020814 | 11 | 44 | 4.8 | 9.7 | 0.03 | 0.18 | 0.18 | 69 | 1011.4 |
| 20260505020337 | 11 | 29 | 0.0 | 9.7 | 0.03 | 0.18 | 0.18 | 71 | 1011.6 |
| 20260505015323 | 11 | 11 | 3.2 | 9.7 | 0.08 | 0.18 | 0.18 | 69 | 1011.2 |
| 20260505014825 | 11 | 42 | 4.8 | 19.3 | 0.10 | 0.18 | 0.18 | 67 | 1011.0 |
| 20260505014327 | 11 | 42 | 4.8 | 19.3 | 0.13 | 0.18 | 0.18 | 66 | 1010.9 |
| 20260505013830 | 11 | 341 | 4.8 | 14.5 | 0.15 | 0.18 | 0.18 | 66 | 1010.8 |
| 20260505013331 | 11 | 36 | 4.8 | 14.5 | 0.15 | 0.18 | 0.18 | 69 | 1010.7 |
| 20260505012813 | 11 | 58 | 1.6 | 6.4 | 0.15 | 0.18 | 0.18 | 72 | 1010.8 |
| 20260505012316 | 11 | 59 | 1.6 | 6.4 | 0.15 | 0.18 | 0.18 | 72 | 1010.9 |
| 20260505011818 | 11 | 22 | 3.2 | 8.0 | 0.13 | 0.15 | 0.15 | 71 | 1011.1 |
| 20260505011321 | 11 | 13 | 3.2 | 8.0 | 0.13 | 0.15 | 0.15 | 69 | 1011.1 |
| 20260505010823 | 11 | 3 | 4.8 | 16.1 | 0.13 | 0.15 | 0.15 | 66 | 1011.1 |
| 20260505010326 | 11 | 11 | 4.8 | 17.7 | 0.13 | 0.15 | 0.15 | 61 | 1011.3 |
| 20260505005827 | 12 | 332 | 4.8 | 17.7 | 0.10 | 0.13 | 0.13 | 61 | 1011.3 |
| 20260505005328 | 12 | 322 | 6.4 | 17.7 | 0.08 | 0.10 | 0.10 | 63 | 1011.4 |
| 20260505004830 | 12 | 315 | 6.4 | 16.1 | 0.08 | 0.08 | 0.08 | 60 | 1011.3 |
| 20260505004331 | 12 | 287 | 8.0 | 22.5 | 0.05 | 0.05 | 0.05 | 57 | 1011.2 |
| 20260505003852 | 13 | 269 | 9.7 | 22.5 | 0.03 | 0.03 | 0.03 | 53 | 1011.0 |
| 20260505003313 | 14 | 302 | 11.3 | 22.5 | 0.03 | 0.03 | 0.03 | 48 | 1010.8 |
| 20260505002816 | 14 | 273 | 9.7 | 22.5 | 0.03 | 0.03 | 0.03 | 46 | 1010.8 |
| 20260505002317 | 15 | 336 | 6.4 | 19.3 | 0.03 | 0.03 | 0.03 | 49 | 1010.6 |
| 20260505001836 | 14 | 335 | 11.3 | 19.3 | 0.03 | 0.03 | 0.03 | 46 | 1010.5 |
| 20260505001317 | 14 | 92 | 9.7 | 17.7 | 0.03 | 0.03 | 0.03 | 48 | 1010.6 |
| 20260505000820 | 13 | 348 | 6.4 | 19.3 | 0.03 | 0.03 | 0.03 | 50 | 1010.4 |
| 20260505000321 | 13 | 3 | 6.4 | 19.3 | 0.03 | 0.03 | 0.03 | 51 | 1010.3 |
| 20260504235822 | 13 | 120 | 1.6 | 20.9 | 0.03 | 0.03 | 0.03 | 53 | 1010.2 |
| 20260504235322 | 14 | 102 | 9.7 | 30.6 | 0.03 | 0.03 | 0.03 | 49 | 1010.4 |
| 20260504234824 | 15 | 73 | 11.3 | 32.2 | 0.00 | 0.00 | 0.00 | 42 | 1010.5 |
| 20260504234327 | 16 | 358 | 19.3 | 32.2 | 0.00 | 0.00 | 0.00 | 38 | 1010.3 |
| 20260504233828 | 17 | 358 | 11.3 | 24.1 | 0.00 | 0.00 | 0.00 | 33 | 1010.1 |
| 20260504233350 | 17 | 358 | 11.3 | 24.1 | 0.00 | 0.00 | 0.00 | 33 | 1009.9 |
| 20260504232831 | 17 | 358 | 8.0 | 20.9 | 0.00 | 0.00 | 0.00 | 33 | 1009.8 |
| 20260504232332 | 17 | 358 | 11.3 | 25.7 | 0.00 | 0.00 | 0.00 | 32 | 1009.8 |
| 20260504231834 | 17 | 358 | 14.5 | 25.7 | 0.00 | 0.00 | 0.00 | 32 | 1009.8 |
| 20260504231314 | 17 | 358 | 9.7 | 30.6 | 0.00 | 0.00 | 0.00 | 32 | 1009.7 |
| 20260504230837 | 17 | 358 | 12.9 | 30.6 | 0.00 | 0.00 | 0.00 | 32 | 1009.6 |
| 20260504230319 | 17 | 358 | 12.9 | 29.0 | 0.00 | 0.00 | 0.00 | 32 | 1009.4 |
| 20260504225819 | 17 | 358 | 12.9 | 25.7 | 0.00 | 0.00 | 0.00 | 31 | 1009.4 |
| 20260504225322 | 17 | 358 | 8.0 | 20.9 | 0.00 | 0.00 | 0.00 | 31 | 1009.2 |
| 20260504224825 | 17 | 358 | 8.0 | 27.4 | 0.00 | 0.00 | 0.00 | 31 | 1009.3 |
| 20260504224325 | 17 | 358 | 8.0 | 27.4 | 0.00 | 0.00 | 0.00 | 32 | 1009.2 |
| 20260504223827 | 17 | 358 | 6.4 | 24.1 | 0.00 | 0.00 | 0.00 | 32 | 1009.2 |
| 20260504223328 | 17 | 358 | 11.3 | 27.4 | 0.00 | 0.00 | 0.00 | 31 | 1009.1 |
| 20260504222850 | 17 | 358 | 12.9 | 27.4 | 0.00 | 0.00 | 0.00 | 31 | 1009.1 |
| 20260504222332 | 17 | 358 | 9.7 | 27.4 | 0.00 | 0.00 | 0.00 | 31 | 1009.2 |
| 20260504221813 | 17 | 358 | 14.5 | 29.0 | 0.00 | 0.00 | 0.00 | 31 | 1009.0 |
| 20260504221316 | 17 | 358 | 14.5 | 29.0 | 0.00 | 0.00 | 0.00 | 30 | 1009.0 |
| 20260504220818 | 18 | 358 | 17.7 | 29.0 | 0.00 | 0.00 | 0.00 | 30 | 1008.9 |
| 20260504220320 | 18 | 358 | 14.5 | 27.4 | 0.00 | 0.00 | 0.00 | 29 | 1008.6 |
| 20260504215822 | 18 | 358 | 14.5 | 24.1 | 0.00 | 0.00 | 0.00 | 28 | 1008.5 |
| 20260504215324 | 19 | 358 | 9.7 | 20.9 | 0.00 | 0.00 | 0.00 | 24 | 1008.4 |
| 20260504214827 | 20 | 358 | 8.0 | 25.7 | 0.00 | 0.00 | 0.00 | 24 | 1008.4 |
| 20260504214329 | 20 | 358 | 12.9 | 25.7 | 0.00 | 0.00 | 0.00 | 23 | 1008.5 |
| 20260504213831 | 20 | 358 | 6.4 | 16.1 | 0.00 | 0.00 | 0.00 | 24 | 1008.6 |
| 20260504213331 | 20 | 358 | 6.4 | 14.5 | 0.00 | 0.00 | 0.00 | 23 | 1008.7 |
| 20260504212813 | 21 | 336 | 9.7 | 14.5 | 0.00 | 0.00 | 0.00 | 22 | 1008.8 |
| 20260504212315 | 21 | 358 | 6.4 | 16.1 | 0.00 | 0.00 | 0.00 | 22 | 1008.8 |
| 20260504211816 | 21 | 8 | 6.4 | 19.3 | 0.00 | 0.00 | 0.00 | 22 | 1008.9 |
| 20260504211318 | 20 | 358 | 9.7 | 19.3 | 0.00 | 0.00 | 0.00 | 23 | 1008.9 |
| 20260504210819 | 20 | 358 | 8.0 | 19.3 | 0.00 | 0.00 | 0.00 | 24 | 1009.0 |
| 20260504210321 | 20 | 358 | 6.4 | 19.3 | 0.00 | 0.00 | 0.00 | 24 | 1008.9 |
| 20260504205823 | 20 | 358 | 12.9 | 19.3 | 0.00 | 0.00 | 0.00 | 23 | 1009.0 |
| 20260504205322 | 20 | 358 | 6.4 | 16.1 | 0.00 | 0.00 | 0.00 | 24 | 1009.0 |
| 20260504204844 | 20 | 358 | 9.7 | 16.1 | 0.00 | 0.00 | 0.00 | 23 | 1009.1 |
| 20260504204326 | 20 | 358 | 3.2 | 16.1 | 0.00 | 0.00 | 0.00 | 24 | 1009.2 |
| 20260504203826 | 20 | 358 | 4.8 | 16.1 | 0.00 | 0.00 | 0.00 | 24 | 1009.2 |
| 20260504203348 | 20 | 358 | 6.4 | 16.1 | 0.00 | 0.00 | 0.00 | 24 | 1009.2 |
| 20260504202828 | 20 | 358 | 3.2 | 16.1 | 0.00 | 0.00 | 0.00 | 25 | 1009.2 |
| 20260504202329 | 20 | 358 | 4.8 | 16.1 | 0.00 | 0.00 | 0.00 | 26 | 1009.3 |
| 20260504201829 | 20 | 358 | 8.0 | 16.1 | 0.00 | 0.00 | 0.00 | 24 | 1009.2 |
| 20260504201333 | 20 | 358 | 6.4 | 14.5 | 0.00 | 0.00 | 0.00 | 23 | 1009.3 |
| 20260504200834 | 20 | 358 | 4.8 | 12.9 | 0.00 | 0.00 | 0.00 | 24 | 1009.2 |
| 20260504200314 | 19 | 358 | 4.8 | 12.9 | 0.00 | 0.00 | 0.00 | 24 | 1009.2 |
| 20260504195816 | 19 | 358 | 3.2 | 9.7 | 0.00 | 0.00 | 0.00 | 24 | 1009.3 |
| 20260504195339 | 19 | 358 | 4.8 | 16.1 | 0.00 | 0.00 | 0.00 | 24 | 1009.4 |
| 20260504194841 | 19 | 358 | 8.0 | 16.1 | 0.00 | 0.00 | 0.00 | 25 | 1009.5 |
| 20260504194340 | 18 | 358 | 4.8 | 14.5 | 0.00 | 0.00 | 0.00 | 25 | 1009.4 |
| 20260504193842 | 18 | 358 | 6.4 | 16.1 | 0.00 | 0.00 | 0.00 | 25 | 1009.4 |
| 20260504193322 | 18 | 358 | 1.6 | 20.9 | 0.00 | 0.00 | 0.00 | 26 | 1009.4 |
| 20260504192822 | 18 | 358 | 3.2 | 16.1 | 0.00 | 0.00 | 0.00 | 27 | 1009.9 |
| 20260504192323 | 18 | 358 | 8.0 | 33.8 | 0.00 | 0.00 | 0.00 | 27 | 1009.9 |
| 20260504191826 | 18 | 358 | 16.1 | 33.8 | 0.00 | 0.00 | 0.00 | 27 | 1009.8 |
| 20260504191347 | 18 | 358 | 16.1 | 30.6 | 0.00 | 0.00 | 0.00 | 24 | 1009.8 |
| 20260504190849 | 18 | 358 | 17.7 | 30.6 | 0.00 | 0.00 | 0.00 | 23 | 1009.8 |
| 20260504190327 | 19 | 358 | 14.5 | 29.0 | 0.00 | 0.00 | 0.00 | 23 | 1009.7 |
| 20260504185830 | 20 | 358 | 6.4 | 14.5 | 0.00 | 0.00 | 0.00 | 22 | 1009.6 |
| 20260504185313 | 20 | 358 | 3.2 | 12.9 | 0.00 | 0.00 | 0.00 | 22 | 1009.5 |
| 20260504184816 | 20 | 358 | 4.8 | 14.5 | 0.00 | 0.00 | 0.00 | 23 | 1009.4 |
| 20260504184320 | 20 | 358 | 3.2 | 16.1 | 0.00 | 0.00 | 0.00 | 22 | 1009.4 |
| 20260504183824 | 21 | 358 | 6.4 | 12.9 | 0.00 | 0.00 | 0.00 | 22 | 1009.4 |
| 20260504183328 | 21 | 358 | 4.8 | 12.9 | 0.00 | 0.00 | 0.00 | 22 | 1009.4 |
| 20260504182831 | 21 | 288 | 4.8 | 12.9 | 0.00 | 0.00 | 0.00 | 23 | 1009.4 |
| 20260504182313 | 21 | 288 | 4.8 | 14.5 | 0.00 | 0.00 | 0.00 | 22 | 1009.4 |
| 20260504181817 | 21 | 304 | 3.2 | 12.9 | 0.00 | 0.00 | 0.00 | 23 | 1009.4 |
| 20260504181319 | 21 | 287 | 4.8 | 17.7 | 0.00 | 0.00 | 0.00 | 22 | 1009.4 |
| 20260504180821 | 21 | 314 | 6.4 | 20.9 | 0.00 | 0.00 | 0.00 | 21 | 1009.6 |
| 20260504180324 | 21 | 349 | 8.0 | 22.5 | 0.00 | 0.00 | 0.00 | 21 | 1009.5 |
| 20260504175827 | 21 | 273 | 8.0 | 22.5 | 0.00 | 0.00 | 0.00 | 22 | 1009.5 |
| 20260504175332 | 21 | 248 | 6.4 | 19.3 | 0.00 | 0.00 | 0.00 | 20 | 1009.6 |
| 20260504174834 | 21 | 302 | 6.4 | 19.3 | 0.00 | 0.00 | 0.00 | 21 | 1009.8 |
| 20260504174316 | 21 | 358 | 6.4 | 14.5 | 0.00 | 0.00 | 0.00 | 19 | 1009.8 |
| 20260504173818 | 21 | 318 | 8.0 | 19.3 | 0.00 | 0.00 | 0.00 | 20 | 1009.9 |
| 20260504173342 | 21 | 256 | 6.4 | 19.3 | 0.00 | 0.00 | 0.00 | 22 | 1010.0 |
| 20260504172824 | 21 | 250 | 6.4 | 20.9 | 0.00 | 0.00 | 0.00 | 22 | 1010.0 |
| 20260504172342 | 21 | 244 | 6.4 | 20.9 | 0.00 | 0.00 | 0.00 | 23 | 1010.1 |
| 20260504171825 | 21 | 311 | 6.4 | 16.1 | 0.00 | 0.00 | 0.00 | 22 | 1010.0 |
| 20260504171328 | 21 | 315 | 4.8 | 20.9 | 0.00 | 0.00 | 0.00 | 23 | 1010.1 |
| 20260504170848 | 21 | 296 | 11.3 | 20.9 | 0.00 | 0.00 | 0.00 | 22 | 1010.2 |
| 20260504170349 | 21 | 295 | 9.7 | 19.3 | 0.00 | 0.00 | 0.00 | 22 | 1010.2 |
| 20260504160331 | 20 | 276 | 9.7 | 20.9 | 0.00 | 0.00 | 0.00 | 23 | 1010.7 |
| 20260504150814 | 17 | 230 | 4.8 | 11.3 | 0.00 | 0.00 | 0.00 | 27 | 1011.0 |
| 20260504150336 | 17 | 233 | 4.8 | 12.9 | 0.00 | 0.00 | 0.00 | 28 | 1011.0 |